Check out our new PWSWeather beta!
PWSweather.com
Personal Weather Stations
Station Observations
HOODRIVER
Hood River, OR 97031

Hood River, OR 97031

Lat: 45.686, Lon: -121.566

Elevation: 700

Station Type: Davis VantagePro2

http://www.threefools.org/weewx

High Low Average
Temperature 90.1°F32.3°C 54.6°F12.6°C 74.1°F23.4°C
Dew Point 58.1°F14.5°C 47.2°F8.4°C 53.0°F11.7°C
Winds 8.0 mph 12.9 kmh Calm Calm 3.0 mph WSW4.8 kmh WSW
Wind Gusts 21.0 mph33.8 kmh -- 7.0 mph11.3 kmh
Humidity 85% 26% 52%
Pressure 30.07 in1018.3 mb 29.95 in1014.2 mb -
Precipitation 0.00 in0.0 mm - -
Hour Temp Dew Point Humidity Winds Wind Gusts Pressure Precip Precip Rate Daily Precip Total
12:00 AM 61.6°F16.4°C 53.2°F11.8°C 74% Calm Calm 1.0 mph1.6 kmh 29.97 in1014.9 mb 0.00 in0.0 mm 0.00 in0.0 mm 0.00 in0.0 mm
12:05 AM 61.2°F16.2°C 52.8°F11.6°C 74% 1.0 mph W1.6 kmh W 2.0 mph3.2 kmh 29.97 in1014.9 mb 0.00 in0.0 mm 0.00 in0.0 mm 0.00 in0.0 mm
12:10 AM 61.2°F16.2°C 52.8°F11.6°C 74% 1.0 mph W1.6 kmh W 3.0 mph4.8 kmh 29.97 in1014.9 mb 0.00 in0.0 mm 0.00 in0.0 mm 0.00 in0.0 mm
12:15 AM 61.4°F16.3°C 53.0°F11.7°C 74% 2.0 mph W3.2 kmh W 3.0 mph4.8 kmh 29.97 in1014.9 mb 0.00 in0.0 mm 0.00 in0.0 mm 0.00 in0.0 mm
12:20 AM 61.4°F16.3°C 53.0°F11.7°C 74% 2.0 mph W3.2 kmh W 3.0 mph4.8 kmh 29.97 in1014.9 mb 0.00 in0.0 mm 0.00 in0.0 mm 0.00 in0.0 mm
12:25 AM 61.6°F16.4°C 53.2°F11.8°C 74% 2.0 mph W3.2 kmh W 3.0 mph4.8 kmh 29.97 in1014.9 mb 0.00 in0.0 mm 0.00 in0.0 mm 0.00 in0.0 mm
12:30 AM 61.3°F16.3°C 52.9°F11.6°C 74% 1.0 mph W1.6 kmh W 3.0 mph4.8 kmh 29.97 in1014.9 mb 0.00 in0.0 mm 0.00 in0.0 mm 0.00 in0.0 mm
12:35 AM 60.9°F16.1°C 52.9°F11.6°C 75% Calm Calm 1.0 mph1.6 kmh 29.97 in1014.9 mb 0.00 in0.0 mm 0.00 in0.0 mm 0.00 in0.0 mm
12:40 AM 60.5°F15.8°C 52.9°F11.6°C 76% Calm Calm 1.0 mph1.6 kmh 29.97 in1014.9 mb 0.00 in0.0 mm 0.00 in0.0 mm 0.00 in0.0 mm
12:45 AM 60.2°F15.7°C 53.3°F11.8°C 78% Calm Calm 2.0 mph3.2 kmh 29.97 in1014.9 mb 0.00 in0.0 mm 0.00 in0.0 mm 0.00 in0.0 mm
12:50 AM 60.0°F15.6°C 52.4°F11.3°C 76% Calm Calm 1.0 mph1.6 kmh 29.97 in1014.9 mb 0.00 in0.0 mm 0.00 in0.0 mm 0.00 in0.0 mm
12:55 AM 59.8°F15.4°C 52.6°F11.4°C 77% Calm Calm 1.0 mph1.6 kmh 29.97 in1014.9 mb 0.00 in0.0 mm 0.00 in0.0 mm 0.00 in0.0 mm
01:00 AM 59.7°F15.4°C 52.5°F11.4°C 77% Calm Calm 1.0 mph1.6 kmh 29.97 in1014.9 mb 0.00 in0.0 mm 0.00 in0.0 mm 0.00 in0.0 mm
01:05 AM 59.5°F15.3°C 52.3°F11.3°C 77% Calm Calm 2.0 mph3.2 kmh 29.97 in1014.9 mb 0.00 in0.0 mm 0.00 in0.0 mm 0.00 in0.0 mm
01:10 AM 59.5°F15.3°C 52.6°F11.4°C 78% Calm Calm 1.0 mph1.6 kmh 29.97 in1014.9 mb 0.00 in0.0 mm 0.00 in0.0 mm 0.00 in0.0 mm
01:15 AM 59.4°F15.2°C 52.5°F11.4°C 78% Calm Calm 2.0 mph3.2 kmh 29.97 in1014.9 mb 0.00 in0.0 mm 0.00 in0.0 mm 0.00 in0.0 mm
01:20 AM 59.2°F15.1°C 52.3°F11.3°C 78% Calm Calm 1.0 mph1.6 kmh 29.97 in1014.9 mb 0.00 in0.0 mm 0.00 in0.0 mm 0.00 in0.0 mm
01:25 AM 59.2°F15.1°C 52.3°F11.3°C 78% Calm Calm 1.0 mph1.6 kmh 29.97 in1014.9 mb 0.00 in0.0 mm 0.00 in0.0 mm 0.00 in0.0 mm
01:30 AM 59.1°F15.1°C 52.2°F11.2°C 78% 2.0 mph W3.2 kmh W 3.0 mph4.8 kmh 29.97 in1014.9 mb 0.00 in0.0 mm 0.00 in0.0 mm 0.00 in0.0 mm
01:35 AM 59.1°F15.1°C 52.2°F11.2°C 78% Calm Calm 1.0 mph1.6 kmh 29.97 in1014.9 mb 0.00 in0.0 mm 0.00 in0.0 mm 0.00 in0.0 mm
01:40 AM 58.9°F14.9°C 52.1°F11.2°C 78% Calm Calm 1.0 mph1.6 kmh 29.97 in1014.9 mb 0.00 in0.0 mm 0.00 in0.0 mm 0.00 in0.0 mm
01:45 AM 58.8°F14.9°C 52.3°F11.3°C 79% 1.0 mph W1.6 kmh W 2.0 mph3.2 kmh 29.97 in1014.9 mb 0.00 in0.0 mm 0.00 in0.0 mm 0.00 in0.0 mm
01:50 AM 58.8°F14.9°C 52.3°F11.3°C 79% 1.0 mph W1.6 kmh W 2.0 mph3.2 kmh 29.97 in1014.9 mb 0.00 in0.0 mm 0.00 in0.0 mm 0.00 in0.0 mm
01:55 AM 58.7°F14.8°C 52.2°F11.2°C 79% 1.0 mph W1.6 kmh W 2.0 mph3.2 kmh 29.97 in1014.9 mb 0.00 in0.0 mm 0.00 in0.0 mm 0.00 in0.0 mm
02:00 AM 58.6°F14.8°C 52.1°F11.2°C 79% 1.0 mph W1.6 kmh W 2.0 mph3.2 kmh 29.98 in1015.2 mb 0.00 in0.0 mm 0.00 in0.0 mm 0.00 in0.0 mm
02:05 AM 58.4°F14.7°C 51.9°F11.1°C 79% Calm Calm 2.0 mph3.2 kmh 29.98 in1015.2 mb 0.00 in0.0 mm 0.00 in0.0 mm 0.00 in0.0 mm
02:10 AM 58.1°F14.5°C 51.6°F10.9°C 79% 1.0 mph W1.6 kmh W 2.0 mph3.2 kmh 29.97 in1014.9 mb 0.00 in0.0 mm 0.00 in0.0 mm 0.00 in0.0 mm
02:15 AM 57.7°F14.3°C 51.6°F10.9°C 80% 1.0 mph W1.6 kmh W 2.0 mph3.2 kmh 29.98 in1015.2 mb 0.00 in0.0 mm 0.00 in0.0 mm 0.00 in0.0 mm
02:20 AM 57.6°F14.2°C 51.8°F11.0°C 81% Calm Calm 1.0 mph1.6 kmh 29.98 in1015.2 mb 0.00 in0.0 mm 0.00 in0.0 mm 0.00 in0.0 mm
02:25 AM 57.5°F14.2°C 51.7°F10.9°C 81% Calm Calm 2.0 mph3.2 kmh 29.98 in1015.2 mb 0.00 in0.0 mm 0.00 in0.0 mm 0.00 in0.0 mm
02:30 AM 57.4°F14.1°C 51.6°F10.9°C 81% Calm Calm 2.0 mph3.2 kmh 29.98 in1015.2 mb 0.00 in0.0 mm 0.00 in0.0 mm 0.00 in0.0 mm
02:35 AM 57.4°F14.1°C 51.6°F10.9°C 81% Calm Calm 2.0 mph3.2 kmh 29.98 in1015.2 mb 0.00 in0.0 mm 0.00 in0.0 mm 0.00 in0.0 mm
02:40 AM 57.3°F14.1°C 51.5°F10.8°C 81% Calm Calm 1.0 mph1.6 kmh 29.98 in1015.2 mb 0.00 in0.0 mm 0.00 in0.0 mm 0.00 in0.0 mm
02:45 AM 57.2°F14.0°C 51.4°F10.8°C 81% Calm Calm 1.0 mph1.6 kmh 29.98 in1015.2 mb 0.00 in0.0 mm 0.00 in0.0 mm 0.00 in0.0 mm
02:50 AM 57.1°F13.9°C 51.7°F10.9°C 82% Calm Calm 2.0 mph3.2 kmh 29.98 in1015.2 mb 0.00 in0.0 mm 0.00 in0.0 mm 0.00 in0.0 mm
02:55 AM 57.1°F13.9°C 51.7°F10.9°C 82% Calm Calm 1.0 mph1.6 kmh 29.98 in1015.2 mb 0.00 in0.0 mm 0.00 in0.0 mm 0.00 in0.0 mm
03:00 AM 57.0°F13.9°C 51.6°F10.9°C 82% Calm Calm 1.0 mph1.6 kmh 29.98 in1015.2 mb 0.00 in0.0 mm 0.00 in0.0 mm 0.00 in0.0 mm
03:05 AM 56.9°F13.8°C 51.5°F10.8°C 82% Calm Calm 1.0 mph1.6 kmh 29.98 in1015.2 mb 0.00 in0.0 mm 0.00 in0.0 mm 0.00 in0.0 mm
03:10 AM 56.6°F13.7°C 51.2°F10.7°C 82% Calm Calm 1.0 mph1.6 kmh 29.98 in1015.2 mb 0.00 in0.0 mm 0.00 in0.0 mm 0.00 in0.0 mm
03:15 AM 56.5°F13.6°C 51.4°F10.8°C 83% Calm Calm 2.0 mph3.2 kmh 29.98 in1015.2 mb 0.00 in0.0 mm 0.00 in0.0 mm 0.00 in0.0 mm
03:20 AM 56.3°F13.5°C 51.2°F10.7°C 83% Calm Calm 1.0 mph1.6 kmh 29.98 in1015.2 mb 0.00 in0.0 mm 0.00 in0.0 mm 0.00 in0.0 mm
03:25 AM 56.1°F13.4°C 51.0°F10.6°C 83% Calm Calm 2.0 mph3.2 kmh 29.99 in1015.6 mb 0.00 in0.0 mm 0.00 in0.0 mm 0.00 in0.0 mm
03:30 AM 56.2°F13.4°C 51.1°F10.6°C 83% Calm Calm 1.0 mph1.6 kmh 29.99 in1015.6 mb 0.00 in0.0 mm 0.00 in0.0 mm 0.00 in0.0 mm
03:35 AM 56.2°F13.4°C 51.1°F10.6°C 83% Calm Calm 1.0 mph1.6 kmh 29.99 in1015.6 mb 0.00 in0.0 mm 0.00 in0.0 mm 0.00 in0.0 mm
03:40 AM 56.0°F13.3°C 50.9°F10.5°C 83% Calm Calm 1.0 mph1.6 kmh 29.99 in1015.6 mb 0.00 in0.0 mm 0.00 in0.0 mm 0.00 in0.0 mm
03:45 AM 56.1°F13.4°C 51.0°F10.6°C 83% 1.0 mph W1.6 kmh W 2.0 mph3.2 kmh 29.99 in1015.6 mb 0.00 in0.0 mm 0.00 in0.0 mm 0.00 in0.0 mm
03:50 AM 56.1°F13.4°C 51.0°F10.6°C 83% Calm Calm 1.0 mph1.6 kmh 29.99 in1015.6 mb 0.00 in0.0 mm 0.00 in0.0 mm 0.00 in0.0 mm
03:55 AM 55.8°F13.2°C 50.7°F10.4°C 83% 1.0 mph W1.6 kmh W 2.0 mph3.2 kmh 29.99 in1015.6 mb 0.00 in0.0 mm 0.00 in0.0 mm 0.00 in0.0 mm
04:00 AM 55.6°F13.1°C 50.5°F10.3°C 83% Calm Calm 1.0 mph1.6 kmh 30.00 in1015.9 mb 0.00 in0.0 mm 0.00 in0.0 mm 0.00 in0.0 mm
04:05 AM 55.7°F13.2°C 50.6°F10.3°C 83% 1.0 mph W1.6 kmh W 2.0 mph3.2 kmh 29.99 in1015.6 mb 0.00 in0.0 mm 0.00 in0.0 mm 0.00 in0.0 mm
04:10 AM 55.5°F13.1°C 50.4°F10.2°C 83% Calm Calm 1.0 mph1.6 kmh 29.99 in1015.6 mb 0.00 in0.0 mm 0.00 in0.0 mm 0.00 in0.0 mm
04:15 AM 55.3°F12.9°C 50.5°F10.3°C 84% Calm Calm -- 29.99 in1015.6 mb 0.00 in0.0 mm 0.00 in0.0 mm 0.00 in0.0 mm
04:20 AM 55.2°F12.9°C 50.4°F10.2°C 84% 1.0 mph W1.6 kmh W 2.0 mph3.2 kmh 29.99 in1015.6 mb 0.00 in0.0 mm 0.00 in0.0 mm 0.00 in0.0 mm
04:25 AM 55.1°F12.8°C 50.4°F10.2°C 84% Calm Calm 2.0 mph3.2 kmh 29.99 in1015.6 mb 0.00 in0.0 mm 0.00 in0.0 mm 0.00 in0.0 mm
04:30 AM 55.1°F12.8°C 50.4°F10.2°C 84% Calm Calm -- 29.99 in1015.6 mb 0.00 in0.0 mm 0.00 in0.0 mm 0.00 in0.0 mm
04:35 AM 54.9°F12.7°C 50.2°F10.1°C 84% Calm Calm 2.0 mph3.2 kmh 29.99 in1015.6 mb 0.00 in0.0 mm 0.00 in0.0 mm 0.00 in0.0 mm
04:40 AM 54.6°F12.6°C 50.2°F10.1°C 85% Calm Calm 1.0 mph1.6 kmh 29.99 in1015.6 mb 0.00 in0.0 mm 0.00 in0.0 mm 0.00 in0.0 mm
04:45 AM 54.8°F12.7°C 50.4°F10.2°C 85% Calm Calm 1.0 mph1.6 kmh 30.00 in1015.9 mb 0.00 in0.0 mm 0.00 in0.0 mm 0.00 in0.0 mm
04:50 AM 55.0°F12.8°C 50.6°F10.3°C 85% Calm Calm 1.0 mph1.6 kmh 30.00 in1015.9 mb 0.00 in0.0 mm 0.00 in0.0 mm 0.00 in0.0 mm
04:55 AM 55.0°F12.8°C 50.3°F10.2°C 84% Calm Calm 1.0 mph1.6 kmh 30.00 in1015.9 mb 0.00 in0.0 mm 0.00 in0.0 mm 0.00 in0.0 mm
05:00 AM 54.8°F12.7°C 50.1°F10.1°C 84% Calm Calm 1.0 mph1.6 kmh 30.00 in1015.9 mb 0.00 in0.0 mm 0.00 in0.0 mm 0.00 in0.0 mm
05:05 AM 54.9°F12.7°C 50.2°F10.1°C 84% 1.0 mph W1.6 kmh W 2.0 mph3.2 kmh 30.00 in1015.9 mb 0.00 in0.0 mm 0.00 in0.0 mm 0.00 in0.0 mm
05:10 AM 54.9°F12.7°C 50.5°F10.3°C 85% 1.0 mph W1.6 kmh W 2.0 mph3.2 kmh 30.00 in1015.9 mb 0.00 in0.0 mm 0.00 in0.0 mm 0.00 in0.0 mm
05:15 AM 55.3°F12.9°C 50.5°F10.3°C 84% 1.0 mph W1.6 kmh W 2.0 mph3.2 kmh 30.00 in1015.9 mb 0.00 in0.0 mm 0.00 in0.0 mm 0.00 in0.0 mm
05:20 AM 55.7°F13.2°C 50.9°F10.5°C 84% Calm Calm 2.0 mph3.2 kmh 30.00 in1015.9 mb 0.00 in0.0 mm 0.00 in0.0 mm 0.00 in0.0 mm
05:25 AM 55.9°F13.3°C 51.1°F10.6°C 84% Calm Calm 1.0 mph1.6 kmh 30.00 in1015.9 mb 0.00 in0.0 mm 0.00 in0.0 mm 0.00 in0.0 mm
05:30 AM 56.0°F13.3°C 51.2°F10.7°C 84% 1.0 mph W1.6 kmh W 2.0 mph3.2 kmh 30.00 in1015.9 mb 0.00 in0.0 mm 0.00 in0.0 mm 0.00 in0.0 mm
05:35 AM 56.1°F13.4°C 51.3°F10.7°C 84% Calm Calm 2.0 mph3.2 kmh 30.00 in1015.9 mb 0.00 in0.0 mm 0.00 in0.0 mm 0.00 in0.0 mm
05:40 AM 56.6°F13.7°C 51.5°F10.8°C 83% Calm Calm 1.0 mph1.6 kmh 30.01 in1016.3 mb 0.00 in0.0 mm 0.00 in0.0 mm 0.00 in0.0 mm
05:45 AM 57.1°F13.9°C 52.0°F11.1°C 83% 1.0 mph W1.6 kmh W 2.0 mph3.2 kmh 30.01 in1016.3 mb 0.00 in0.0 mm 0.00 in0.0 mm 0.00 in0.0 mm
05:50 AM 57.5°F14.2°C 52.0°F11.1°C 82% Calm Calm 1.0 mph1.6 kmh 30.01 in1016.3 mb 0.00 in0.0 mm 0.00 in0.0 mm 0.00 in0.0 mm
05:55 AM 58.0°F14.4°C 52.9°F11.6°C 83% Calm Calm 1.0 mph1.6 kmh 30.01 in1016.3 mb 0.00 in0.0 mm 0.00 in0.0 mm 0.00 in0.0 mm
06:00 AM 58.4°F14.7°C 52.9°F11.6°C 82% Calm Calm -- 30.01 in1016.3 mb 0.00 in0.0 mm 0.00 in0.0 mm 0.00 in0.0 mm
06:05 AM 59.0°F15.0°C 53.2°F11.8°C 81% Calm Calm 2.0 mph3.2 kmh 30.01 in1016.3 mb 0.00 in0.0 mm 0.00 in0.0 mm 0.00 in0.0 mm
06:10 AM 59.5°F15.3°C 53.3°F11.8°C 80% Calm Calm 2.0 mph3.2 kmh 30.01 in1016.3 mb 0.00 in0.0 mm 0.00 in0.0 mm 0.00 in0.0 mm
06:15 AM 60.5°F15.8°C 54.0°F12.2°C 79% Calm Calm 1.0 mph1.6 kmh 30.01 in1016.3 mb 0.00 in0.0 mm 0.00 in0.0 mm 0.00 in0.0 mm
06:20 AM 61.8°F16.6°C 54.5°F12.5°C 77% Calm Calm 1.0 mph1.6 kmh 30.01 in1016.3 mb 0.00 in0.0 mm 0.00 in0.0 mm 0.00 in0.0 mm
06:25 AM 62.9°F17.2°C 54.1°F12.3°C 73% 1.0 mph W1.6 kmh W 2.0 mph3.2 kmh 30.01 in1016.3 mb 0.00 in0.0 mm 0.00 in0.0 mm 0.00 in0.0 mm
06:30 AM 63.6°F17.6°C 54.8°F12.7°C 73% 1.0 mph W1.6 kmh W 2.0 mph3.2 kmh 30.01 in1016.3 mb 0.00 in0.0 mm 0.00 in0.0 mm 0.00 in0.0 mm
06:35 AM 64.1°F17.8°C 55.3°F12.9°C 73% 1.0 mph W1.6 kmh W 2.0 mph3.2 kmh 30.01 in1016.3 mb 0.00 in0.0 mm 0.00 in0.0 mm 0.00 in0.0 mm
06:40 AM 64.3°F17.9°C 55.1°F12.8°C 72% 1.0 mph W1.6 kmh W 2.0 mph3.2 kmh 30.01 in1016.3 mb 0.00 in0.0 mm 0.00 in0.0 mm 0.00 in0.0 mm
06:45 AM 64.8°F18.2°C 55.6°F13.1°C 72% Calm Calm 1.0 mph1.6 kmh 30.01 in1016.3 mb 0.00 in0.0 mm 0.00 in0.0 mm 0.00 in0.0 mm
06:50 AM 65.1°F18.4°C 55.1°F12.8°C 70% 1.0 mph W1.6 kmh W 3.0 mph4.8 kmh 30.01 in1016.3 mb 0.00 in0.0 mm 0.00 in0.0 mm 0.00 in0.0 mm
06:55 AM 65.2°F18.4°C 55.2°F12.9°C 70% 1.0 mph W1.6 kmh W 2.0 mph3.2 kmh 30.01 in1016.3 mb 0.00 in0.0 mm 0.00 in0.0 mm 0.00 in0.0 mm
07:00 AM 65.6°F18.7°C 54.3°F12.4°C 67% 1.0 mph W1.6 kmh W 2.0 mph3.2 kmh 30.01 in1016.3 mb 0.00 in0.0 mm 0.00 in0.0 mm 0.00 in0.0 mm
07:05 AM 66.3°F19.1°C 53.7°F12.1°C 64% 1.0 mph 1.6 kmh 2.0 mph3.2 kmh 30.02 in1016.6 mb 0.00 in0.0 mm 0.00 in0.0 mm 0.00 in0.0 mm
07:10 AM 66.5°F19.2°C 55.2°F12.9°C 67% 2.0 mph 3.2 kmh 4.0 mph6.4 kmh 30.01 in1016.3 mb 0.00 in0.0 mm 0.00 in0.0 mm 0.00 in0.0 mm
07:15 AM 66.4°F19.1°C 55.1°F12.8°C 67% 2.0 mph ENE3.2 kmh ENE 3.0 mph4.8 kmh 30.02 in1016.6 mb 0.00 in0.0 mm 0.00 in0.0 mm 0.00 in0.0 mm
07:20 AM 66.5°F19.2°C 54.4°F12.4°C 65% 1.0 mph ENE1.6 kmh ENE 3.0 mph4.8 kmh 30.02 in1016.6 mb 0.00 in0.0 mm 0.00 in0.0 mm 0.00 in0.0 mm
07:25 AM 67.3°F19.6°C 54.7°F12.6°C 64% 1.0 mph ENE1.6 kmh ENE 3.0 mph4.8 kmh 30.02 in1016.6 mb 0.00 in0.0 mm 0.00 in0.0 mm 0.00 in0.0 mm
07:30 AM 67.2°F19.6°C 54.6°F12.6°C 64% 1.0 mph ESE1.6 kmh ESE 3.0 mph4.8 kmh 30.02 in1016.6 mb 0.00 in0.0 mm 0.00 in0.0 mm 0.00 in0.0 mm
07:35 AM 67.5°F19.7°C 54.9°F12.7°C 64% 1.0 mph ESE1.6 kmh ESE 2.0 mph3.2 kmh 30.02 in1016.6 mb 0.00 in0.0 mm 0.00 in0.0 mm 0.00 in0.0 mm
07:40 AM 67.9°F19.9°C 54.8°F12.7°C 63% 1.0 mph ESE1.6 kmh ESE 3.0 mph4.8 kmh 30.02 in1016.6 mb 0.00 in0.0 mm 0.00 in0.0 mm 0.00 in0.0 mm
07:45 AM 68.4°F20.2°C 55.3°F12.9°C 63% 1.0 mph ESE1.6 kmh ESE 3.0 mph4.8 kmh 30.02 in1016.6 mb 0.00 in0.0 mm 0.00 in0.0 mm 0.00 in0.0 mm
07:50 AM 68.3°F20.2°C 54.3°F12.4°C 61% 1.0 mph E1.6 kmh E 3.0 mph4.8 kmh 30.02 in1016.6 mb 0.00 in0.0 mm 0.00 in0.0 mm 0.00 in0.0 mm
07:55 AM 68.9°F20.5°C 55.3°F12.9°C 62% 1.0 mph ESE1.6 kmh ESE 3.0 mph4.8 kmh 30.02 in1016.6 mb 0.00 in0.0 mm 0.00 in0.0 mm 0.00 in0.0 mm
08:00 AM 69.1°F20.6°C 55.1°F12.8°C 61% 2.0 mph ESE3.2 kmh ESE 3.0 mph4.8 kmh 30.02 in1016.6 mb 0.00 in0.0 mm 0.00 in0.0 mm 0.00 in0.0 mm
08:05 AM 69.8°F21.0°C 55.7°F13.2°C 61% 1.0 mph ESE1.6 kmh ESE 3.0 mph4.8 kmh 30.02 in1016.6 mb 0.00 in0.0 mm 0.00 in0.0 mm 0.00 in0.0 mm
08:10 AM 70.5°F21.4°C 55.9°F13.3°C 60% 1.0 mph ESE1.6 kmh ESE 3.0 mph4.8 kmh 30.02 in1016.6 mb 0.00 in0.0 mm 0.00 in0.0 mm 0.00 in0.0 mm
08:15 AM 70.6°F21.4°C 55.6°F13.1°C 59% 1.0 mph SE1.6 kmh SE 3.0 mph4.8 kmh 30.02 in1016.6 mb 0.00 in0.0 mm 0.00 in0.0 mm 0.00 in0.0 mm
08:20 AM 70.8°F21.6°C 54.8°F12.7°C 57% 2.0 mph SE3.2 kmh SE 5.0 mph8.0 kmh 30.02 in1016.6 mb 0.00 in0.0 mm 0.00 in0.0 mm 0.00 in0.0 mm
08:25 AM 70.9°F21.6°C 54.4°F12.4°C 56% 2.0 mph SSE3.2 kmh SSE 4.0 mph6.4 kmh 30.01 in1016.3 mb 0.00 in0.0 mm 0.00 in0.0 mm 0.00 in0.0 mm
08:30 AM 71.6°F22.0°C 56.0°F13.3°C 58% 2.0 mph SSE3.2 kmh SSE 3.0 mph4.8 kmh 30.01 in1016.3 mb 0.00 in0.0 mm 0.00 in0.0 mm 0.00 in0.0 mm
08:35 AM 72.2°F22.3°C 54.6°F12.6°C 54% 2.0 mph SSE3.2 kmh SSE 4.0 mph6.4 kmh 30.02 in1016.6 mb 0.00 in0.0 mm 0.00 in0.0 mm 0.00 in0.0 mm
08:40 AM 72.9°F22.7°C 54.8°F12.7°C 53% 2.0 mph SSE3.2 kmh SSE 4.0 mph6.4 kmh 30.02 in1016.6 mb 0.00 in0.0 mm 0.00 in0.0 mm 0.00 in0.0 mm
08:45 AM 73.7°F23.2°C 55.5°F13.1°C 53% 2.0 mph SSE3.2 kmh SSE 4.0 mph6.4 kmh 30.01 in1016.3 mb 0.00 in0.0 mm 0.00 in0.0 mm 0.00 in0.0 mm
08:50 AM 74.1°F23.4°C 56.9°F13.8°C 55% 2.0 mph SE3.2 kmh SE 4.0 mph6.4 kmh 30.02 in1016.6 mb 0.00 in0.0 mm 0.00 in0.0 mm 0.00 in0.0 mm
08:55 AM 73.9°F23.3°C 55.7°F13.2°C 53% 2.0 mph SSE3.2 kmh SSE 4.0 mph6.4 kmh 30.01 in1016.3 mb 0.00 in0.0 mm 0.00 in0.0 mm 0.00 in0.0 mm
09:00 AM 73.4°F23.0°C 55.2°F12.9°C 53% 3.0 mph S4.8 kmh S 5.0 mph8.0 kmh 30.01 in1016.3 mb 0.00 in0.0 mm 0.00 in0.0 mm 0.00 in0.0 mm
09:05 AM 73.7°F23.2°C 55.5°F13.1°C 53% 2.0 mph SE3.2 kmh SE 4.0 mph6.4 kmh 30.01 in1016.3 mb 0.00 in0.0 mm 0.00 in0.0 mm 0.00 in0.0 mm
09:10 AM 73.9°F23.3°C 56.2°F13.4°C 54% 3.0 mph SSE4.8 kmh SSE 5.0 mph8.0 kmh 30.01 in1016.3 mb 0.00 in0.0 mm 0.00 in0.0 mm 0.00 in0.0 mm
09:15 AM 74.8°F23.8°C 55.4°F13.0°C 51% 3.0 mph SSE4.8 kmh SSE 6.0 mph9.7 kmh 30.01 in1016.3 mb 0.00 in0.0 mm 0.00 in0.0 mm 0.00 in0.0 mm
09:20 AM 75.6°F24.2°C 55.6°F13.1°C 50% 2.0 mph SSE3.2 kmh SSE 4.0 mph6.4 kmh 30.01 in1016.3 mb 0.00 in0.0 mm 0.00 in0.0 mm 0.00 in0.0 mm
09:25 AM 77.4°F25.2°C 55.0°F12.8°C 46% 2.0 mph SSE3.2 kmh SSE 4.0 mph6.4 kmh 30.01 in1016.3 mb 0.00 in0.0 mm 0.00 in0.0 mm 0.00 in0.0 mm
09:30 AM 78.9°F26.1°C 55.1°F12.8°C 44% 2.0 mph W3.2 kmh W 4.0 mph6.4 kmh 30.00 in1015.9 mb 0.00 in0.0 mm 0.00 in0.0 mm 0.00 in0.0 mm
09:35 AM 79.6°F26.4°C 55.7°F13.2°C 44% 2.0 mph WSW3.2 kmh WSW 5.0 mph8.0 kmh 30.01 in1016.3 mb 0.00 in0.0 mm 0.00 in0.0 mm 0.00 in0.0 mm
09:40 AM 79.7°F26.5°C 53.9°F12.2°C 41% 3.0 mph WNW4.8 kmh WNW 6.0 mph9.7 kmh 30.00 in1015.9 mb 0.00 in0.0 mm 0.00 in0.0 mm 0.00 in0.0 mm
09:45 AM 80.7°F27.1°C 56.7°F13.7°C 44% 3.0 mph NW4.8 kmh NW 10.0 mph16.1 kmh 30.00 in1015.9 mb 0.00 in0.0 mm 0.00 in0.0 mm 0.00 in0.0 mm
09:50 AM 80.4°F26.9°C 57.7°F14.3°C 46% 2.0 mph S3.2 kmh S 4.0 mph6.4 kmh 30.00 in1015.9 mb 0.00 in0.0 mm 0.00 in0.0 mm 0.00 in0.0 mm
09:55 AM 80.6°F27.0°C 57.3°F14.1°C 45% 2.0 mph SSW3.2 kmh SSW 5.0 mph8.0 kmh 30.00 in1015.9 mb 0.00 in0.0 mm 0.00 in0.0 mm 0.00 in0.0 mm
10:00 AM 81.2°F27.3°C 56.5°F13.6°C 43% 2.0 mph SSE3.2 kmh SSE 4.0 mph6.4 kmh 30.00 in1015.9 mb 0.00 in0.0 mm 0.00 in0.0 mm 0.00 in0.0 mm
10:05 AM 81.2°F27.3°C 57.8°F14.3°C 45% 2.0 mph WSW3.2 kmh WSW 3.0 mph4.8 kmh 30.00 in1015.9 mb 0.00 in0.0 mm 0.00 in0.0 mm 0.00 in0.0 mm
10:10 AM 81.1°F27.3°C 56.5°F13.6°C 43% 3.0 mph S4.8 kmh S 6.0 mph9.7 kmh 30.00 in1015.9 mb 0.00 in0.0 mm 0.00 in0.0 mm 0.00 in0.0 mm
10:15 AM 81.6°F27.6°C 54.2°F12.3°C 39% 5.0 mph WNW8.0 kmh WNW 11.0 mph17.7 kmh 30.00 in1015.9 mb 0.00 in0.0 mm 0.00 in0.0 mm 0.00 in0.0 mm
10:20 AM 81.4°F27.4°C 54.7°F12.6°C 40% 5.0 mph WNW8.0 kmh WNW 12.0 mph19.3 kmh 30.00 in1015.9 mb 0.00 in0.0 mm 0.00 in0.0 mm 0.00 in0.0 mm
10:25 AM 81.5°F27.5°C 55.5°F13.1°C 41% 4.0 mph W6.4 kmh W 10.0 mph16.1 kmh 30.00 in1015.9 mb 0.00 in0.0 mm 0.00 in0.0 mm 0.00 in0.0 mm
10:30 AM 81.4°F27.4°C 54.7°F12.6°C 40% 6.0 mph W9.7 kmh W 11.0 mph17.7 kmh 29.99 in1015.6 mb 0.00 in0.0 mm 0.00 in0.0 mm 0.00 in0.0 mm
10:35 AM 82.1°F27.8°C 55.4°F13.0°C 40% 5.0 mph W8.0 kmh W 15.0 mph24.1 kmh 29.99 in1015.6 mb 0.00 in0.0 mm 0.00 in0.0 mm 0.00 in0.0 mm
10:40 AM 82.2°F27.9°C 54.7°F12.6°C 39% 5.0 mph W8.0 kmh W 11.0 mph17.7 kmh 29.99 in1015.6 mb 0.00 in0.0 mm 0.00 in0.0 mm 0.00 in0.0 mm
10:45 AM 82.9°F28.3°C 54.7°F12.6°C 38% 5.0 mph W8.0 kmh W 14.0 mph22.5 kmh 29.99 in1015.6 mb 0.00 in0.0 mm 0.00 in0.0 mm 0.00 in0.0 mm
10:50 AM 82.9°F28.3°C 55.4°F13.0°C 39% 5.0 mph WSW8.0 kmh WSW 15.0 mph24.1 kmh 29.99 in1015.6 mb 0.00 in0.0 mm 0.00 in0.0 mm 0.00 in0.0 mm
10:55 AM 82.6°F28.1°C 55.8°F13.2°C 40% 5.0 mph W8.0 kmh W 12.0 mph19.3 kmh 29.99 in1015.6 mb 0.00 in0.0 mm 0.00 in0.0 mm 0.00 in0.0 mm
11:00 AM 83.3°F28.5°C 55.7°F13.2°C 39% 5.0 mph W8.0 kmh W 14.0 mph22.5 kmh 29.99 in1015.6 mb 0.00 in0.0 mm 0.00 in0.0 mm 0.00 in0.0 mm
11:05 AM 84.4°F29.1°C 55.2°F12.9°C 37% 4.0 mph NNW6.4 kmh NNW 18.0 mph29.0 kmh 29.99 in1015.6 mb 0.00 in0.0 mm 0.00 in0.0 mm 0.00 in0.0 mm
11:10 AM 84.2°F29.0°C 55.1°F12.8°C 37% 6.0 mph W9.7 kmh W 17.0 mph27.4 kmh 29.99 in1015.6 mb 0.00 in0.0 mm 0.00 in0.0 mm 0.00 in0.0 mm
11:15 AM 84.8°F29.3°C 54.1°F12.3°C 35% 4.0 mph W6.4 kmh W 11.0 mph17.7 kmh 29.98 in1015.2 mb 0.00 in0.0 mm 0.00 in0.0 mm 0.00 in0.0 mm
11:20 AM 85.4°F29.7°C 56.9°F13.8°C 38% 4.0 mph W6.4 kmh W 9.0 mph14.5 kmh 29.98 in1015.2 mb 0.00 in0.0 mm 0.00 in0.0 mm 0.00 in0.0 mm
11:25 AM 85.5°F29.7°C 56.2°F13.4°C 37% 4.0 mph NW6.4 kmh NW 10.0 mph16.1 kmh 29.98 in1015.2 mb 0.00 in0.0 mm 0.00 in0.0 mm 0.00 in0.0 mm
11:30 AM 85.4°F29.7°C 56.1°F13.4°C 37% 3.0 mph NW4.8 kmh NW 7.0 mph11.3 kmh 29.98 in1015.2 mb 0.00 in0.0 mm 0.00 in0.0 mm 0.00 in0.0 mm
11:35 AM 86.1°F30.1°C 56.0°F13.3°C 36% 3.0 mph 4.8 kmh 10.0 mph16.1 kmh 29.98 in1015.2 mb 0.00 in0.0 mm 0.00 in0.0 mm 0.00 in0.0 mm
11:40 AM 86.2°F30.1°C 56.8°F13.8°C 37% 3.0 mph WNW4.8 kmh WNW 11.0 mph17.7 kmh 29.98 in1015.2 mb 0.00 in0.0 mm 0.00 in0.0 mm 0.00 in0.0 mm
11:45 AM 85.3°F29.6°C 56.0°F13.3°C 37% 6.0 mph W9.7 kmh W 13.0 mph20.9 kmh 29.98 in1015.2 mb 0.00 in0.0 mm 0.00 in0.0 mm 0.00 in0.0 mm
11:50 AM 85.2°F29.6°C 55.2°F12.9°C 36% 5.0 mph W8.0 kmh W 13.0 mph20.9 kmh 29.98 in1015.2 mb 0.00 in0.0 mm 0.00 in0.0 mm 0.00 in0.0 mm
11:55 AM 85.0°F29.4°C 55.0°F12.8°C 36% 8.0 mph WSW12.9 kmh WSW 17.0 mph27.4 kmh 29.98 in1015.2 mb 0.00 in0.0 mm 0.00 in0.0 mm 0.00 in0.0 mm
12:00 PM 86.0°F30.0°C 58.1°F14.5°C 39% 4.0 mph W6.4 kmh W 13.0 mph20.9 kmh 29.98 in1015.2 mb 0.00 in0.0 mm 0.00 in0.0 mm 0.00 in0.0 mm
12:05 PM 85.5°F29.7°C 56.2°F13.4°C 37% 8.0 mph W12.9 kmh W 21.0 mph33.8 kmh 29.98 in1015.2 mb 0.00 in0.0 mm 0.00 in0.0 mm 0.00 in0.0 mm
12:10 PM 85.5°F29.7°C 57.0°F13.9°C 38% 6.0 mph NW9.7 kmh NW 14.0 mph22.5 kmh 29.97 in1014.9 mb 0.00 in0.0 mm 0.00 in0.0 mm 0.00 in0.0 mm
12:15 PM 85.6°F29.8°C 56.3°F13.5°C 37% 6.0 mph W9.7 kmh W 14.0 mph22.5 kmh 29.97 in1014.9 mb 0.00 in0.0 mm 0.00 in0.0 mm 0.00 in0.0 mm
12:20 PM 85.9°F29.9°C 55.8°F13.2°C 36% 6.0 mph W9.7 kmh W 15.0 mph24.1 kmh 29.97 in1014.9 mb 0.00 in0.0 mm 0.00 in0.0 mm 0.00 in0.0 mm
12:25 PM 85.9°F29.9°C 56.6°F13.7°C 37% 5.0 mph W8.0 kmh W 13.0 mph20.9 kmh 29.97 in1014.9 mb 0.00 in0.0 mm 0.00 in0.0 mm 0.00 in0.0 mm
12:30 PM 86.7°F30.4°C 56.5°F13.6°C 36% 5.0 mph WSW8.0 kmh WSW 14.0 mph22.5 kmh 29.97 in1014.9 mb 0.00 in0.0 mm 0.00 in0.0 mm 0.00 in0.0 mm
12:35 PM 86.4°F30.2°C 57.0°F13.9°C 37% 5.0 mph WNW8.0 kmh WNW 11.0 mph17.7 kmh 29.96 in1014.6 mb 0.00 in0.0 mm 0.00 in0.0 mm 0.00 in0.0 mm
12:40 PM 86.5°F30.3°C 56.3°F13.5°C 36% 4.0 mph NW6.4 kmh NW 10.0 mph16.1 kmh 29.97 in1014.9 mb 0.00 in0.0 mm 0.00 in0.0 mm 0.00 in0.0 mm
12:45 PM 87.0°F30.6°C 56.0°F13.3°C 35% 4.0 mph NW6.4 kmh NW 7.0 mph11.3 kmh 29.96 in1014.6 mb 0.00 in0.0 mm 0.00 in0.0 mm 0.00 in0.0 mm
12:50 PM 87.2°F30.7°C 57.0°F13.9°C 36% 4.0 mph NW6.4 kmh NW 13.0 mph20.9 kmh 29.97 in1014.9 mb 0.00 in0.0 mm 0.00 in0.0 mm 0.00 in0.0 mm
12:55 PM 87.8°F31.0°C 57.5°F14.2°C 36% 4.0 mph NNW6.4 kmh NNW 9.0 mph14.5 kmh 29.97 in1014.9 mb 0.00 in0.0 mm 0.00 in0.0 mm 0.00 in0.0 mm
01:00 PM 87.5°F30.8°C 54.8°F12.7°C 33% 4.0 mph NW6.4 kmh NW 10.0 mph16.1 kmh 29.97 in1014.9 mb 0.00 in0.0 mm 0.00 in0.0 mm 0.00 in0.0 mm
01:05 PM 87.9°F31.1°C 56.0°F13.3°C 34% 4.0 mph NNW6.4 kmh NNW 12.0 mph19.3 kmh 29.96 in1014.6 mb 0.00 in0.0 mm 0.00 in0.0 mm 0.00 in0.0 mm
01:10 PM 87.8°F31.0°C 55.9°F13.3°C 34% 4.0 mph NW6.4 kmh NW 10.0 mph16.1 kmh 29.97 in1014.9 mb 0.00 in0.0 mm 0.00 in0.0 mm 0.00 in0.0 mm
01:15 PM 87.9°F31.1°C 56.0°F13.3°C 34% 4.0 mph NW6.4 kmh NW 9.0 mph14.5 kmh 29.97 in1014.9 mb 0.00 in0.0 mm 0.00 in0.0 mm 0.00 in0.0 mm
01:20 PM 88.4°F31.3°C 56.4°F13.6°C 34% 4.0 mph W6.4 kmh W 13.0 mph20.9 kmh 29.97 in1014.9 mb 0.00 in0.0 mm 0.00 in0.0 mm 0.00 in0.0 mm
01:25 PM 88.0°F31.1°C 56.1°F13.4°C 34% 4.0 mph NW6.4 kmh NW 9.0 mph14.5 kmh 29.97 in1014.9 mb 0.00 in0.0 mm 0.00 in0.0 mm 0.00 in0.0 mm
01:30 PM 87.7°F30.9°C 55.8°F13.2°C 34% 6.0 mph NNW9.7 kmh NNW 17.0 mph27.4 kmh 29.97 in1014.9 mb 0.00 in0.0 mm 0.00 in0.0 mm 0.00 in0.0 mm
01:35 PM 88.3°F31.3°C 54.7°F12.6°C 32% 4.0 mph WNW6.4 kmh WNW 12.0 mph19.3 kmh 29.97 in1014.9 mb 0.00 in0.0 mm 0.00 in0.0 mm 0.00 in0.0 mm
01:40 PM 88.9°F31.6°C 53.4°F11.9°C 30% 4.0 mph NW6.4 kmh NW 10.0 mph16.1 kmh 29.97 in1014.9 mb 0.00 in0.0 mm 0.00 in0.0 mm 0.00 in0.0 mm
01:45 PM 89.0°F31.7°C 54.4°F12.4°C 31% 5.0 mph NW8.0 kmh NW 14.0 mph22.5 kmh 29.96 in1014.6 mb 0.00 in0.0 mm 0.00 in0.0 mm 0.00 in0.0 mm
01:50 PM 89.1°F31.7°C 53.6°F12.0°C 30% 4.0 mph NW6.4 kmh NW 10.0 mph16.1 kmh 29.96 in1014.6 mb 0.00 in0.0 mm 0.00 in0.0 mm 0.00 in0.0 mm
01:55 PM 89.9°F32.2°C 52.4°F11.3°C 28% 4.0 mph NNW6.4 kmh NNW 10.0 mph16.1 kmh 29.96 in1014.6 mb 0.00 in0.0 mm 0.00 in0.0 mm 0.00 in0.0 mm
02:00 PM 89.7°F32.1°C 53.2°F11.8°C 29% 4.0 mph WNW6.4 kmh WNW 11.0 mph17.7 kmh 29.96 in1014.6 mb 0.00 in0.0 mm 0.00 in0.0 mm 0.00 in0.0 mm
02:05 PM 89.8°F32.1°C 54.2°F12.3°C 30% 4.0 mph W6.4 kmh W 10.0 mph16.1 kmh 29.96 in1014.6 mb 0.00 in0.0 mm 0.00 in0.0 mm 0.00 in0.0 mm
02:10 PM 89.9°F32.2°C 54.3°F12.4°C 30% 3.0 mph 4.8 kmh 9.0 mph14.5 kmh 29.96 in1014.6 mb 0.00 in0.0 mm 0.00 in0.0 mm 0.00 in0.0 mm
02:15 PM 89.5°F31.9°C 53.9°F12.2°C 30% 4.0 mph NNW6.4 kmh NNW 9.0 mph14.5 kmh 29.96 in1014.6 mb 0.00 in0.0 mm 0.00 in0.0 mm 0.00 in0.0 mm
02:20 PM 89.7°F32.1°C 55.9°F13.3°C 32% 4.0 mph NNW6.4 kmh NNW 11.0 mph17.7 kmh 29.96 in1014.6 mb 0.00 in0.0 mm 0.00 in0.0 mm 0.00 in0.0 mm
02:25 PM 89.7°F32.1°C 53.2°F11.8°C 29% 3.0 mph WSW4.8 kmh WSW 9.0 mph14.5 kmh 29.96 in1014.6 mb 0.00 in0.0 mm 0.00 in0.0 mm 0.00 in0.0 mm
02:30 PM 89.8°F32.1°C 55.1°F12.8°C 31% 4.0 mph NW6.4 kmh NW 11.0 mph17.7 kmh 29.96 in1014.6 mb 0.00 in0.0 mm 0.00 in0.0 mm 0.00 in0.0 mm
02:35 PM 90.1°F32.3°C 52.6°F11.4°C 28% 3.0 mph NNE4.8 kmh NNE 7.0 mph11.3 kmh 29.96 in1014.6 mb 0.00 in0.0 mm 0.00 in0.0 mm 0.00 in0.0 mm
02:40 PM 89.5°F31.9°C 52.0°F11.1°C 28% 6.0 mph W9.7 kmh W 18.0 mph29.0 kmh 29.96 in1014.6 mb 0.00 in0.0 mm 0.00 in0.0 mm 0.00 in0.0 mm
02:45 PM 89.1°F31.7°C 50.7°F10.4°C 27% 8.0 mph W12.9 kmh W 18.0 mph29.0 kmh 29.95 in1014.2 mb 0.00 in0.0 mm 0.00 in0.0 mm 0.00 in0.0 mm
02:50 PM 89.3°F31.8°C 51.9°F11.1°C 28% 6.0 mph WNW9.7 kmh WNW 13.0 mph20.9 kmh 29.96 in1014.6 mb 0.00 in0.0 mm 0.00 in0.0 mm 0.00 in0.0 mm
02:55 PM 89.6°F32.0°C 50.1°F10.1°C 26% 5.0 mph W8.0 kmh W 12.0 mph19.3 kmh 29.96 in1014.6 mb 0.00 in0.0 mm 0.00 in0.0 mm 0.00 in0.0 mm
03:00 PM 89.6°F32.0°C 50.1°F10.1°C 26% 4.0 mph WSW6.4 kmh WSW 11.0 mph17.7 kmh 29.96 in1014.6 mb 0.00 in0.0 mm 0.00 in0.0 mm 0.00 in0.0 mm
03:05 PM 89.2°F31.8°C 50.8°F10.4°C 27% 6.0 mph WNW9.7 kmh WNW 16.0 mph25.7 kmh 29.96 in1014.6 mb 0.00 in0.0 mm 0.00 in0.0 mm 0.00 in0.0 mm
03:10 PM 89.5°F31.9°C 51.1°F10.6°C 27% 4.0 mph WSW6.4 kmh WSW 9.0 mph14.5 kmh 29.96 in1014.6 mb 0.00 in0.0 mm 0.00 in0.0 mm 0.00 in0.0 mm
03:15 PM 89.2°F31.8°C 52.7°F11.5°C 29% 6.0 mph W9.7 kmh W 15.0 mph24.1 kmh 29.96 in1014.6 mb 0.00 in0.0 mm 0.00 in0.0 mm 0.00 in0.0 mm
03:20 PM 88.8°F31.6°C 54.2°F12.3°C 31% 7.0 mph WSW11.3 kmh WSW 16.0 mph25.7 kmh 29.96 in1014.6 mb 0.00 in0.0 mm 0.00 in0.0 mm 0.00 in0.0 mm
03:25 PM 88.8°F31.6°C 52.4°F11.3°C 29% 6.0 mph WSW9.7 kmh WSW 19.0 mph30.6 kmh 29.96 in1014.6 mb 0.00 in0.0 mm 0.00 in0.0 mm 0.00 in0.0 mm
03:30 PM 88.8°F31.6°C 53.3°F11.8°C 30% 6.0 mph W9.7 kmh W 13.0 mph20.9 kmh 29.96 in1014.6 mb 0.00 in0.0 mm 0.00 in0.0 mm 0.00 in0.0 mm
03:35 PM 88.8°F31.6°C 53.3°F11.8°C 30% 6.0 mph W9.7 kmh W 14.0 mph22.5 kmh 29.96 in1014.6 mb 0.00 in0.0 mm 0.00 in0.0 mm 0.00 in0.0 mm
03:40 PM 88.8°F31.6°C 53.3°F11.8°C 30% 5.0 mph W8.0 kmh W 16.0 mph25.7 kmh 29.97 in1014.9 mb 0.00 in0.0 mm 0.00 in0.0 mm 0.00 in0.0 mm
03:45 PM 88.9°F31.6°C 53.4°F11.9°C 30% 5.0 mph WNW8.0 kmh WNW 15.0 mph24.1 kmh 29.96 in1014.6 mb 0.00 in0.0 mm 0.00 in0.0 mm 0.00 in0.0 mm
03:50 PM 88.7°F31.5°C 51.4°F10.8°C 28% 5.0 mph W8.0 kmh W 13.0 mph20.9 kmh 29.96 in1014.6 mb 0.00 in0.0 mm 0.00 in0.0 mm 0.00 in0.0 mm
03:55 PM 88.7°F31.5°C 52.3°F11.3°C 29% 5.0 mph W8.0 kmh W 13.0 mph20.9 kmh 29.96 in1014.6 mb 0.00 in0.0 mm 0.00 in0.0 mm 0.00 in0.0 mm
04:00 PM 88.4°F31.3°C 53.0°F11.7°C 30% 5.0 mph W8.0 kmh W 11.0 mph17.7 kmh 29.96 in1014.6 mb 0.00 in0.0 mm 0.00 in0.0 mm 0.00 in0.0 mm
04:05 PM 88.8°F31.6°C 52.4°F11.3°C 29% 4.0 mph WNW6.4 kmh WNW 13.0 mph20.9 kmh 29.96 in1014.6 mb 0.00 in0.0 mm 0.00 in0.0 mm 0.00 in0.0 mm
04:10 PM 88.6°F31.4°C 54.1°F12.3°C 31% 4.0 mph W6.4 kmh W 13.0 mph20.9 kmh 29.96 in1014.6 mb 0.00 in0.0 mm 0.00 in0.0 mm 0.00 in0.0 mm
04:15 PM 88.3°F31.3°C 54.7°F12.6°C 32% 4.0 mph W6.4 kmh W 13.0 mph20.9 kmh 29.96 in1014.6 mb 0.00 in0.0 mm 0.00 in0.0 mm 0.00 in0.0 mm
04:20 PM 88.3°F31.3°C 54.7°F12.6°C 32% 4.0 mph W6.4 kmh W 10.0 mph16.1 kmh 29.96 in1014.6 mb 0.00 in0.0 mm 0.00 in0.0 mm 0.00 in0.0 mm
04:25 PM 88.0°F31.1°C 53.5°F11.9°C 31% 5.0 mph W8.0 kmh W 11.0 mph17.7 kmh 29.96 in1014.6 mb 0.00 in0.0 mm 0.00 in0.0 mm 0.00 in0.0 mm
04:30 PM 87.9°F31.1°C 54.3°F12.4°C 32% 5.0 mph WNW8.0 kmh WNW 15.0 mph24.1 kmh 29.96 in1014.6 mb 0.00 in0.0 mm 0.00 in0.0 mm 0.00 in0.0 mm
04:35 PM 87.7°F30.9°C 54.1°F12.3°C 32% 6.0 mph W9.7 kmh W 15.0 mph24.1 kmh 29.97 in1014.9 mb 0.00 in0.0 mm 0.00 in0.0 mm 0.00 in0.0 mm
04:40 PM 88.0°F31.1°C 52.6°F11.4°C 30% 3.0 mph WNW4.8 kmh WNW 9.0 mph14.5 kmh 29.97 in1014.9 mb 0.00 in0.0 mm 0.00 in0.0 mm 0.00 in0.0 mm
04:45 PM 87.5°F30.8°C 53.1°F11.7°C 31% 7.0 mph WNW11.3 kmh WNW 16.0 mph25.7 kmh 29.97 in1014.9 mb 0.00 in0.0 mm 0.00 in0.0 mm 0.00 in0.0 mm
04:50 PM 87.2°F30.7°C 52.8°F11.6°C 31% 6.0 mph WSW9.7 kmh WSW 13.0 mph20.9 kmh 29.97 in1014.9 mb 0.00 in0.0 mm 0.00 in0.0 mm 0.00 in0.0 mm
04:55 PM 87.2°F30.7°C 52.8°F11.6°C 31% 5.0 mph SW8.0 kmh SW 16.0 mph25.7 kmh 29.97 in1014.9 mb 0.00 in0.0 mm 0.00 in0.0 mm 0.00 in0.0 mm
05:00 PM 87.2°F30.7°C 52.8°F11.6°C 31% 4.0 mph WSW6.4 kmh WSW 8.0 mph12.9 kmh 29.97 in1014.9 mb 0.00 in0.0 mm 0.00 in0.0 mm 0.00 in0.0 mm
05:05 PM 86.9°F30.5°C 51.7°F10.9°C 30% 6.0 mph W9.7 kmh W 14.0 mph22.5 kmh 29.97 in1014.9 mb 0.00 in0.0 mm 0.00 in0.0 mm 0.00 in0.0 mm
05:10 PM 86.8°F30.4°C 52.5°F11.4°C 31% 5.0 mph W8.0 kmh W 14.0 mph22.5 kmh 29.97 in1014.9 mb 0.00 in0.0 mm 0.00 in0.0 mm 0.00 in0.0 mm
05:15 PM 86.7°F30.4°C 52.4°F11.3°C 31% 6.0 mph WSW9.7 kmh WSW 16.0 mph25.7 kmh 29.98 in1015.2 mb 0.00 in0.0 mm 0.00 in0.0 mm 0.00 in0.0 mm
05:20 PM 86.6°F30.3°C 53.2°F11.8°C 32% 4.0 mph W6.4 kmh W 10.0 mph16.1 kmh 29.97 in1014.9 mb 0.00 in0.0 mm 0.00 in0.0 mm 0.00 in0.0 mm
05:25 PM 86.4°F30.2°C 52.2°F11.2°C 31% 4.0 mph W6.4 kmh W 12.0 mph19.3 kmh 29.97 in1014.9 mb 0.00 in0.0 mm 0.00 in0.0 mm 0.00 in0.0 mm
05:30 PM 86.3°F30.2°C 51.2°F10.7°C 30% 6.0 mph W9.7 kmh W 11.0 mph17.7 kmh 29.98 in1015.2 mb 0.00 in0.0 mm 0.00 in0.0 mm 0.00 in0.0 mm
05:35 PM 86.2°F30.1°C 50.2°F10.1°C 29% 6.0 mph W9.7 kmh W 14.0 mph22.5 kmh 29.98 in1015.2 mb 0.00 in0.0 mm 0.00 in0.0 mm 0.00 in0.0 mm
05:40 PM 86.0°F30.0°C 49.1°F9.5°C 28% 7.0 mph W11.3 kmh W 16.0 mph25.7 kmh 29.98 in1015.2 mb 0.00 in0.0 mm 0.00 in0.0 mm 0.00 in0.0 mm
05:45 PM 85.8°F29.9°C 48.9°F9.4°C 28% 4.0 mph NW6.4 kmh NW 11.0 mph17.7 kmh 29.98 in1015.2 mb 0.00 in0.0 mm 0.00 in0.0 mm 0.00 in0.0 mm
05:50 PM 85.7°F29.8°C 47.8°F8.8°C 27% 5.0 mph WSW8.0 kmh WSW 11.0 mph17.7 kmh 29.98 in1015.2 mb 0.00 in0.0 mm 0.00 in0.0 mm 0.00 in0.0 mm
05:55 PM 85.6°F29.8°C 47.8°F8.8°C 27% 5.0 mph W8.0 kmh W 12.0 mph19.3 kmh 29.98 in1015.2 mb 0.00 in0.0 mm 0.00 in0.0 mm 0.00 in0.0 mm
06:00 PM 85.4°F29.7°C 47.6°F8.7°C 27% 4.0 mph W6.4 kmh W 10.0 mph16.1 kmh 29.98 in1015.2 mb 0.00 in0.0 mm 0.00 in0.0 mm 0.00 in0.0 mm
06:05 PM 85.0°F29.4°C 47.2°F8.4°C 27% 5.0 mph W8.0 kmh W 13.0 mph20.9 kmh 29.98 in1015.2 mb 0.00 in0.0 mm 0.00 in0.0 mm 0.00 in0.0 mm
06:10 PM 84.9°F29.4°C 48.1°F8.9°C 28% 3.0 mph WSW4.8 kmh WSW 8.0 mph12.9 kmh 29.98 in1015.2 mb 0.00 in0.0 mm 0.00 in0.0 mm 0.00 in0.0 mm
06:15 PM 84.5°F29.2°C 48.7°F9.3°C 29% 4.0 mph W6.4 kmh W 9.0 mph14.5 kmh 29.98 in1015.2 mb 0.00 in0.0 mm 0.00 in0.0 mm 0.00 in0.0 mm
06:20 PM 84.2°F29.0°C 48.5°F9.2°C 29% 3.0 mph W4.8 kmh W 8.0 mph12.9 kmh 29.98 in1015.2 mb 0.00 in0.0 mm 0.00 in0.0 mm 0.00 in0.0 mm
06:25 PM 84.1°F28.9°C 48.4°F9.1°C 29% 4.0 mph W6.4 kmh W 12.0 mph19.3 kmh 29.99 in1015.6 mb 0.00 in0.0 mm 0.00 in0.0 mm 0.00 in0.0 mm
06:30 PM 83.9°F28.8°C 48.2°F9.0°C 29% 5.0 mph WNW8.0 kmh WNW 12.0 mph19.3 kmh 29.99 in1015.6 mb 0.00 in0.0 mm 0.00 in0.0 mm 0.00 in0.0 mm
06:35 PM 83.6°F28.7°C 48.0°F8.9°C 29% 4.0 mph W6.4 kmh W 11.0 mph17.7 kmh 29.99 in1015.6 mb 0.00 in0.0 mm 0.00 in0.0 mm 0.00 in0.0 mm
06:40 PM 83.3°F28.5°C 48.6°F9.2°C 30% 3.0 mph WSW4.8 kmh WSW 6.0 mph9.7 kmh 29.99 in1015.6 mb 0.00 in0.0 mm 0.00 in0.0 mm 0.00 in0.0 mm
06:45 PM 83.0°F28.3°C 48.3°F9.1°C 30% 4.0 mph W6.4 kmh W 10.0 mph16.1 kmh 29.99 in1015.6 mb 0.00 in0.0 mm 0.00 in0.0 mm 0.00 in0.0 mm
06:50 PM 82.8°F28.2°C 49.9°F9.9°C 32% 3.0 mph WSW4.8 kmh WSW 10.0 mph16.1 kmh 29.99 in1015.6 mb 0.00 in0.0 mm 0.00 in0.0 mm 0.00 in0.0 mm
06:55 PM 82.6°F28.1°C 48.9°F9.4°C 31% 3.0 mph W4.8 kmh W 7.0 mph11.3 kmh 29.99 in1015.6 mb 0.00 in0.0 mm 0.00 in0.0 mm 0.00 in0.0 mm
07:00 PM 81.9°F27.7°C 49.1°F9.5°C 32% 2.0 mph W3.2 kmh W 7.0 mph11.3 kmh 29.99 in1015.6 mb 0.00 in0.0 mm 0.00 in0.0 mm 0.00 in0.0 mm
07:05 PM 81.7°F27.6°C 48.9°F9.4°C 32% 2.0 mph W3.2 kmh W 5.0 mph8.0 kmh 29.99 in1015.6 mb 0.00 in0.0 mm 0.00 in0.0 mm 0.00 in0.0 mm
07:10 PM 81.1°F27.3°C 49.2°F9.6°C 33% 2.0 mph WSW3.2 kmh WSW 7.0 mph11.3 kmh 29.99 in1015.6 mb 0.00 in0.0 mm 0.00 in0.0 mm 0.00 in0.0 mm
07:15 PM 80.4°F26.9°C 49.4°F9.7°C 34% 1.0 mph WSW1.6 kmh WSW 4.0 mph6.4 kmh 29.99 in1015.6 mb 0.00 in0.0 mm 0.00 in0.0 mm 0.00 in0.0 mm
07:20 PM 79.6°F26.4°C 49.5°F9.7°C 35% 1.0 mph WSW1.6 kmh WSW 2.0 mph3.2 kmh 29.99 in1015.6 mb 0.00 in0.0 mm 0.00 in0.0 mm 0.00 in0.0 mm
07:25 PM 79.1°F26.2°C 50.6°F10.3°C 37% 1.0 mph W1.6 kmh W 5.0 mph8.0 kmh 30.00 in1015.9 mb 0.00 in0.0 mm 0.00 in0.0 mm 0.00 in0.0 mm
07:30 PM 78.7°F25.9°C 50.2°F10.1°C 37% 1.0 mph W1.6 kmh W 3.0 mph4.8 kmh 30.00 in1015.9 mb 0.00 in0.0 mm 0.00 in0.0 mm 0.00 in0.0 mm
07:35 PM 78.8°F26.0°C 49.6°F9.8°C 36% 1.0 mph WNW1.6 kmh WNW 5.0 mph8.0 kmh 30.00 in1015.9 mb 0.00 in0.0 mm 0.00 in0.0 mm 0.00 in0.0 mm
07:40 PM 78.8°F26.0°C 50.3°F10.2°C 37% 2.0 mph W3.2 kmh W 5.0 mph8.0 kmh 30.00 in1015.9 mb 0.00 in0.0 mm 0.00 in0.0 mm 0.00 in0.0 mm
07:45 PM 79.0°F26.1°C 50.5°F10.3°C 37% 2.0 mph W3.2 kmh W 4.0 mph6.4 kmh 30.00 in1015.9 mb 0.00 in0.0 mm 0.00 in0.0 mm 0.00 in0.0 mm
07:50 PM 78.6°F25.9°C 50.1°F10.1°C 37% 1.0 mph W1.6 kmh W 4.0 mph6.4 kmh 30.00 in1015.9 mb 0.00 in0.0 mm 0.00 in0.0 mm 0.00 in0.0 mm
07:55 PM 77.9°F25.5°C 49.5°F9.7°C 37% 1.0 mph W1.6 kmh W 2.0 mph3.2 kmh 30.00 in1015.9 mb 0.00 in0.0 mm 0.00 in0.0 mm 0.00 in0.0 mm
08:00 PM 77.7°F25.4°C 50.0°F10.0°C 38% 1.0 mph W1.6 kmh W 5.0 mph8.0 kmh 30.00 in1015.9 mb 0.00 in0.0 mm 0.00 in0.0 mm 0.00 in0.0 mm
08:05 PM 77.1°F25.1°C 48.1°F8.9°C 36% 1.0 mph W1.6 kmh W 4.0 mph6.4 kmh 30.00 in1015.9 mb 0.00 in0.0 mm 0.00 in0.0 mm 0.00 in0.0 mm
08:10 PM 77.5°F25.3°C 49.2°F9.6°C 37% 2.0 mph SW3.2 kmh SW 4.0 mph6.4 kmh 30.01 in1016.3 mb 0.00 in0.0 mm 0.00 in0.0 mm 0.00 in0.0 mm
08:15 PM 76.8°F24.9°C 48.5°F9.2°C 37% 2.0 mph W3.2 kmh W 6.0 mph9.7 kmh 30.01 in1016.3 mb 0.00 in0.0 mm 0.00 in0.0 mm 0.00 in0.0 mm
08:20 PM 76.9°F24.9°C 47.9°F8.8°C 36% 3.0 mph W4.8 kmh W 7.0 mph11.3 kmh 30.01 in1016.3 mb 0.00 in0.0 mm 0.00 in0.0 mm 0.00 in0.0 mm
08:25 PM 77.6°F25.3°C 48.5°F9.2°C 36% 2.0 mph W3.2 kmh W 10.0 mph16.1 kmh 30.02 in1016.6 mb 0.00 in0.0 mm 0.00 in0.0 mm 0.00 in0.0 mm
08:30 PM 77.7°F25.4°C 47.8°F8.8°C 35% 2.0 mph W3.2 kmh W 7.0 mph11.3 kmh 30.02 in1016.6 mb 0.00 in0.0 mm 0.00 in0.0 mm 0.00 in0.0 mm
08:35 PM 77.9°F25.5°C 48.8°F9.3°C 36% 3.0 mph WNW4.8 kmh WNW 9.0 mph14.5 kmh 30.02 in1016.6 mb 0.00 in0.0 mm 0.00 in0.0 mm 0.00 in0.0 mm
08:40 PM 78.0°F25.6°C 48.9°F9.4°C 36% 4.0 mph WSW6.4 kmh WSW 11.0 mph17.7 kmh 30.02 in1016.6 mb 0.00 in0.0 mm 0.00 in0.0 mm 0.00 in0.0 mm
08:45 PM 78.3°F25.7°C 49.9°F9.9°C 37% 3.0 mph WSW4.8 kmh WSW 7.0 mph11.3 kmh 30.02 in1016.6 mb 0.00 in0.0 mm 0.00 in0.0 mm 0.00 in0.0 mm
08:50 PM 78.1°F25.6°C 50.4°F10.2°C 38% 4.0 mph WSW6.4 kmh WSW 11.0 mph17.7 kmh 30.03 in1016.9 mb 0.00 in0.0 mm 0.00 in0.0 mm 0.00 in0.0 mm
08:55 PM 78.1°F25.6°C 51.1°F10.6°C 39% 5.0 mph WNW8.0 kmh WNW 11.0 mph17.7 kmh 30.03 in1016.9 mb 0.00 in0.0 mm 0.00 in0.0 mm 0.00 in0.0 mm
09:00 PM 77.7°F25.4°C 52.1°F11.2°C 41% 3.0 mph W4.8 kmh W 10.0 mph16.1 kmh 30.03 in1016.9 mb 0.00 in0.0 mm 0.00 in0.0 mm 0.00 in0.0 mm
09:05 PM 77.4°F25.2°C 52.5°F11.4°C 42% 3.0 mph W4.8 kmh W 10.0 mph16.1 kmh 30.03 in1016.9 mb 0.00 in0.0 mm 0.00 in0.0 mm 0.00 in0.0 mm
09:10 PM 77.1°F25.1°C 52.9°F11.6°C 43% 4.0 mph W6.4 kmh W 9.0 mph14.5 kmh 30.04 in1017.3 mb 0.00 in0.0 mm 0.00 in0.0 mm 0.00 in0.0 mm
09:15 PM 76.7°F24.8°C 53.1°F11.7°C 44% 3.0 mph W4.8 kmh W 6.0 mph9.7 kmh 30.04 in1017.3 mb 0.00 in0.0 mm 0.00 in0.0 mm 0.00 in0.0 mm
09:20 PM 76.2°F24.6°C 53.9°F12.2°C 46% 3.0 mph WSW4.8 kmh WSW 6.0 mph9.7 kmh 30.04 in1017.3 mb 0.00 in0.0 mm 0.00 in0.0 mm 0.00 in0.0 mm
09:25 PM 75.8°F24.3°C 53.5°F11.9°C 46% 3.0 mph W4.8 kmh W 6.0 mph9.7 kmh 30.04 in1017.3 mb 0.00 in0.0 mm 0.00 in0.0 mm 0.00 in0.0 mm
09:30 PM 75.5°F24.2°C 54.4°F12.4°C 48% 3.0 mph WSW4.8 kmh WSW 10.0 mph16.1 kmh 30.04 in1017.3 mb 0.00 in0.0 mm 0.00 in0.0 mm 0.00 in0.0 mm
09:35 PM 75.1°F23.9°C 54.6°F12.6°C 49% 2.0 mph WSW3.2 kmh WSW 6.0 mph9.7 kmh 30.04 in1017.3 mb 0.00 in0.0 mm 0.00 in0.0 mm 0.00 in0.0 mm
09:40 PM 74.9°F23.8°C 55.0°F12.8°C 50% 3.0 mph WSW4.8 kmh WSW 7.0 mph11.3 kmh 30.04 in1017.3 mb 0.00 in0.0 mm 0.00 in0.0 mm 0.00 in0.0 mm
09:45 PM 74.5°F23.6°C 54.6°F12.6°C 50% 4.0 mph W6.4 kmh W 8.0 mph12.9 kmh 30.04 in1017.3 mb 0.00 in0.0 mm 0.00 in0.0 mm 0.00 in0.0 mm
09:50 PM 74.3°F23.5°C 54.4°F12.4°C 50% 3.0 mph W4.8 kmh W 10.0 mph16.1 kmh 30.04 in1017.3 mb 0.00 in0.0 mm 0.00 in0.0 mm 0.00 in0.0 mm
09:55 PM 74.1°F23.4°C 54.8°F12.7°C 51% 3.0 mph WSW4.8 kmh WSW 6.0 mph9.7 kmh 30.05 in1017.6 mb 0.00 in0.0 mm 0.00 in0.0 mm 0.00 in0.0 mm
10:00 PM 73.9°F23.3°C 54.6°F12.6°C 51% 3.0 mph W4.8 kmh W 9.0 mph14.5 kmh 30.05 in1017.6 mb 0.00 in0.0 mm 0.00 in0.0 mm 0.00 in0.0 mm
10:05 PM 73.8°F23.2°C 54.5°F12.5°C 51% 3.0 mph W4.8 kmh W 6.0 mph9.7 kmh 30.05 in1017.6 mb 0.00 in0.0 mm 0.00 in0.0 mm 0.00 in0.0 mm
10:10 PM 73.5°F23.1°C 54.8°F12.7°C 52% 3.0 mph W4.8 kmh W 10.0 mph16.1 kmh 30.05 in1017.6 mb 0.00 in0.0 mm 0.00 in0.0 mm 0.00 in0.0 mm
10:15 PM 73.3°F22.9°C 54.6°F12.6°C 52% 4.0 mph W6.4 kmh W 11.0 mph17.7 kmh 30.05 in1017.6 mb 0.00 in0.0 mm 0.00 in0.0 mm 0.00 in0.0 mm
10:20 PM 73.2°F22.9°C 54.5°F12.5°C 52% 3.0 mph W4.8 kmh W 7.0 mph11.3 kmh 30.05 in1017.6 mb 0.00 in0.0 mm 0.00 in0.0 mm 0.00 in0.0 mm
10:25 PM 73.1°F22.8°C 54.4°F12.4°C 52% 4.0 mph WNW6.4 kmh WNW 11.0 mph17.7 kmh 30.05 in1017.6 mb 0.00 in0.0 mm 0.00 in0.0 mm 0.00 in0.0 mm
10:30 PM 73.0°F22.8°C 54.3°F12.4°C 52% 5.0 mph W8.0 kmh W 10.0 mph16.1 kmh 30.05 in1017.6 mb 0.00 in0.0 mm 0.00 in0.0 mm 0.00 in0.0 mm
10:35 PM 72.8°F22.7°C 53.6°F12.0°C 51% 5.0 mph W8.0 kmh W 12.0 mph19.3 kmh 30.05 in1017.6 mb 0.00 in0.0 mm 0.00 in0.0 mm 0.00 in0.0 mm
10:40 PM 72.8°F22.7°C 54.1°F12.3°C 52% 5.0 mph W8.0 kmh W 11.0 mph17.7 kmh 30.05 in1017.6 mb 0.00 in0.0 mm 0.00 in0.0 mm 0.00 in0.0 mm
10:45 PM 72.4°F22.4°C 53.8°F12.1°C 52% 4.0 mph WNW6.4 kmh WNW 13.0 mph20.9 kmh 30.05 in1017.6 mb 0.00 in0.0 mm 0.00 in0.0 mm 0.00 in0.0 mm
10:50 PM 71.8°F22.1°C 53.7°F12.1°C 53% 3.0 mph WSW4.8 kmh WSW 9.0 mph14.5 kmh 30.05 in1017.6 mb 0.00 in0.0 mm 0.00 in0.0 mm 0.00 in0.0 mm
10:55 PM 71.3°F21.8°C 53.8°F12.1°C 54% 3.0 mph NW4.8 kmh NW 12.0 mph19.3 kmh 30.06 in1017.9 mb 0.00 in0.0 mm 0.00 in0.0 mm 0.00 in0.0 mm
11:00 PM 71.0°F21.7°C 54.0°F12.2°C 55% 4.0 mph NW6.4 kmh NW 13.0 mph20.9 kmh 30.06 in1017.9 mb 0.00 in0.0 mm 0.00 in0.0 mm 0.00 in0.0 mm
11:05 PM 70.7°F21.5°C 54.2°F12.3°C 56% 3.0 mph NW4.8 kmh NW 11.0 mph17.7 kmh 30.06 in1017.9 mb 0.00 in0.0 mm 0.00 in0.0 mm 0.00 in0.0 mm
11:10 PM 70.5°F21.4°C 54.0°F12.2°C 56% 3.0 mph W4.8 kmh W 11.0 mph17.7 kmh 30.06 in1017.9 mb 0.00 in0.0 mm 0.00 in0.0 mm 0.00 in0.0 mm
11:15 PM 70.2°F21.2°C 54.2°F12.3°C 57% 3.0 mph W4.8 kmh W 10.0 mph16.1 kmh 30.06 in1017.9 mb 0.00 in0.0 mm 0.00 in0.0 mm 0.00 in0.0 mm
11:20 PM 69.9°F21.1°C 54.4°F12.4°C 58% 3.0 mph WSW4.8 kmh WSW 10.0 mph16.1 kmh 30.07 in1018.3 mb 0.00 in0.0 mm 0.00 in0.0 mm 0.00 in0.0 mm
11:25 PM 69.8°F21.0°C 54.3°F12.4°C 58% 4.0 mph NW6.4 kmh NW 12.0 mph19.3 kmh 30.07 in1018.3 mb 0.00 in0.0 mm 0.00 in0.0 mm 0.00 in0.0 mm
11:30 PM 69.7°F20.9°C 54.3°F12.4°C 58% 6.0 mph W9.7 kmh W 16.0 mph25.7 kmh 30.07 in1018.3 mb 0.00 in0.0 mm 0.00 in0.0 mm 0.00 in0.0 mm
11:35 PM 69.5°F20.8°C 54.5°F12.5°C 59% 4.0 mph W6.4 kmh W 11.0 mph17.7 kmh 30.07 in1018.3 mb 0.00 in0.0 mm 0.00 in0.0 mm 0.00 in0.0 mm
11:40 PM 69.1°F20.6°C 54.6°F12.6°C 60% 3.0 mph W4.8 kmh W 9.0 mph14.5 kmh 30.07 in1018.3 mb 0.00 in0.0 mm 0.00 in0.0 mm 0.00 in0.0 mm
11:45 PM 68.9°F20.5°C 54.4°F12.4°C 60% 3.0 mph W4.8 kmh W 14.0 mph22.5 kmh 30.07 in1018.3 mb 0.00 in0.0 mm 0.00 in0.0 mm 0.00 in0.0 mm
11:50 PM 68.6°F20.3°C 54.6°F12.6°C 61% 3.0 mph WNW4.8 kmh WNW 10.0 mph16.1 kmh 30.07 in1018.3 mb 0.00 in0.0 mm 0.00 in0.0 mm 0.00 in0.0 mm
11:55 PM 68.6°F20.3°C 54.6°F12.6°C 61% 4.0 mph WSW6.4 kmh WSW 15.0 mph24.1 kmh 30.07 in1018.3 mb 0.00 in0.0 mm 0.00 in0.0 mm 0.00 in0.0 mm